createdAt,value
2023-04-17T00:01:55.923Z,99.90
2023-04-17T00:04:24.404Z,99.90
2023-04-17T00:06:53.959Z,99.90
2023-04-17T00:09:22.407Z,99.90
2023-04-17T00:11:50.783Z,99.90
2023-04-17T00:14:19.104Z,99.90
2023-04-17T00:16:47.497Z,99.90
2023-04-17T00:19:20.047Z,99.90
2023-04-17T00:21:48.400Z,99.90
2023-04-17T00:24:16.748Z,99.90
2023-04-17T00:26:45.066Z,99.90
2023-04-17T00:29:13.469Z,99.90
2023-04-17T00:31:41.888Z,99.90
2023-04-17T00:34:10.588Z,99.90
2023-04-17T00:36:40.281Z,99.90
2023-04-17T00:39:08.634Z,99.90
2023-04-17T00:41:37.067Z,99.90
2023-04-17T00:44:05.556Z,99.90
2023-04-17T00:46:34.121Z,99.90
2023-04-17T00:49:02.493Z,99.90
2023-04-17T00:51:31.667Z,99.90
2023-04-17T00:54:02.199Z,99.90
2023-04-17T00:56:31.553Z,99.90
2023-04-17T00:59:02.830Z,99.90
2023-04-17T01:01:31.287Z,99.90
2023-04-17T01:04:01.897Z,99.90
2023-04-17T01:06:30.403Z,99.90
2023-04-17T01:09:00.703Z,99.90
2023-04-17T01:11:29.403Z,99.90
2023-04-17T01:13:57.923Z,99.90
2023-04-17T01:16:26.401Z,99.90
2023-04-17T01:18:54.882Z,99.90
2023-04-17T01:21:23.194Z,99.90
2023-04-17T01:23:53.281Z,99.90
2023-04-17T01:26:25.824Z,99.90
2023-04-17T01:28:56.317Z,99.90
2023-04-17T01:31:25.613Z,99.90
2023-04-17T01:33:54.365Z,99.90
2023-04-17T01:36:23.174Z,99.90
2023-04-17T01:38:51.466Z,99.90
2023-04-17T01:41:20.204Z,99.90
2023-04-17T01:43:50.407Z,99.90
2023-04-17T01:46:19.174Z,99.90
2023-04-17T01:48:47.806Z,99.90
2023-04-17T01:51:16.162Z,99.90
2023-04-17T01:53:44.392Z,99.90
2023-04-17T01:56:13.855Z,99.90
2023-04-17T01:58:43.041Z,99.90
2023-04-17T02:01:13.092Z,99.90
2023-04-17T02:03:42.174Z,99.90
2023-04-17T02:06:10.776Z,99.90
2023-04-17T02:08:39.021Z,99.90
2023-04-17T02:11:07.431Z,99.90
2023-04-17T02:13:35.955Z,99.90
2023-04-17T02:16:04.628Z,99.90
2023-04-17T02:18:34.467Z,99.90
2023-04-17T02:21:02.758Z,99.90
2023-04-17T02:23:31.049Z,99.90
2023-04-17T02:25:59.330Z,99.90
2023-04-17T02:28:27.774Z,99.90
2023-04-17T02:30:56.262Z,99.90
2023-04-17T02:33:24.692Z,99.90
2023-04-17T02:35:55.459Z,99.90
2023-04-17T02:38:30.603Z,99.90
2023-04-17T02:40:59.348Z,99.90
2023-04-17T02:43:30.407Z,99.90
2023-04-17T02:45:58.827Z,99.90
2023-04-17T02:48:28.642Z,99.90
2023-04-17T02:50:58.765Z,99.90
2023-04-17T02:53:29.525Z,99.90
2023-04-17T02:55:57.845Z,99.90
2023-04-17T02:58:26.668Z,99.90
2023-04-17T03:01:02.420Z,99.90
2023-04-17T03:03:35.205Z,99.90
2023-04-17T03:06:08.379Z,99.90
2023-04-17T03:08:38.663Z,99.90
2023-04-17T03:11:07.492Z,99.90
2023-04-17T03:13:37.153Z,99.90
2023-04-17T03:16:06.348Z,99.90
2023-04-17T03:18:41.054Z,99.90
2023-04-17T03:21:11.090Z,99.90
2023-04-17T03:23:39.473Z,99.90
2023-04-17T03:26:09.421Z,99.90
2023-04-17T03:28:38.387Z,99.90
2023-04-17T03:31:07.305Z,99.90
2023-04-17T03:33:37.967Z,99.90
2023-04-17T03:36:07.133Z,99.90
2023-04-17T03:38:39.496Z,99.90
2023-04-17T03:41:10.284Z,99.90
2023-04-17T03:43:39.474Z,99.90
2023-04-17T03:46:10.532Z,99.90
2023-04-17T03:48:40.159Z,99.90
2023-04-17T03:51:08.578Z,99.90
2023-04-17T03:53:40.253Z,99.90
2023-04-17T03:56:11.925Z,99.90
2023-04-17T03:58:43.232Z,99.90
2023-04-17T04:01:14.743Z,99.90
2023-04-17T04:03:57.935Z,99.90
2023-04-17T04:06:29.949Z,99.90
2023-04-17T04:09:00.544Z,99.90
2023-04-17T04:11:29.422Z,99.90
2023-04-17T04:13:57.770Z,99.90
2023-04-17T04:16:26.198Z,99.90
2023-04-17T04:19:01.191Z,99.90
2023-04-17T04:21:30.513Z,99.90
2023-04-17T04:24:00.711Z,99.90
2023-04-17T04:26:28.918Z,99.90
2023-04-17T04:29:00.198Z,99.90
2023-04-17T04:31:35.758Z,99.90
2023-04-17T04:34:06.155Z,99.90
2023-04-17T04:36:36.308Z,99.90
2023-04-17T04:39:30.113Z,99.90
2023-04-17T04:42:05.848Z,99.90
2023-04-17T04:44:44.551Z,99.90
2023-04-17T04:47:13.837Z,99.90
2023-04-17T04:49:42.360Z,99.90
2023-04-17T04:52:11.014Z,99.90
2023-04-17T04:54:41.384Z,99.90
2023-04-17T04:57:10.002Z,99.90
2023-04-17T04:59:39.461Z,99.90
2023-04-17T05:02:33.943Z,99.90
2023-04-17T05:05:04.354Z,99.90
2023-04-17T05:07:35.215Z,99.90
2023-04-17T05:10:07.417Z,99.90
2023-04-17T05:12:40.920Z,99.90
2023-04-17T05:15:11.948Z,99.90
2023-04-17T05:17:41.905Z,99.90
2023-04-17T05:20:12.304Z,99.90
2023-04-17T05:22:48.150Z,99.90
2023-04-17T05:25:19.815Z,99.90
2023-04-17T05:27:49.202Z,99.90
2023-04-17T05:30:18.638Z,99.90
2023-04-17T05:32:52.076Z,99.90
2023-04-17T05:35:33.584Z,99.90
2023-04-17T05:38:02.325Z,99.90
2023-04-17T05:40:32.685Z,99.90
2023-04-17T05:43:08.296Z,99.90
2023-04-17T05:45:37.325Z,99.90
2023-04-17T05:48:09.350Z,99.90
2023-04-17T05:50:38.580Z,99.90
2023-04-17T05:53:07.885Z,99.90
2023-04-17T05:55:47.922Z,99.90
2023-04-17T05:58:23.859Z,99.90
2023-04-17T06:00:56.307Z,99.90
2023-04-17T06:03:26.152Z,99.90
2023-04-17T06:06:05.358Z,99.90
2023-04-17T06:08:34.186Z,99.90
2023-04-17T06:11:03.934Z,99.90
2023-04-17T06:13:32.392Z,99.90
2023-04-17T06:16:01.234Z,99.90
2023-04-17T06:18:29.513Z,99.90
2023-04-17T06:20:57.870Z,99.90
2023-04-17T06:23:29.665Z,99.90
2023-04-17T06:25:58.109Z,99.90
2023-04-17T06:28:27.823Z,99.90
2023-04-17T06:30:57.396Z,99.90
2023-04-17T06:33:26.908Z,99.90
2023-04-17T06:35:56.333Z,99.90
2023-04-17T06:38:38.705Z,99.90
2023-04-17T06:41:07.136Z,99.90
2023-04-17T06:43:43.211Z,99.90
2023-04-17T06:46:16.057Z,99.90
2023-04-17T06:48:44.341Z,99.90
2023-04-17T06:51:13.012Z,99.90
2023-04-17T06:53:41.328Z,99.90
2023-04-17T06:56:09.676Z,99.90
2023-04-17T06:58:44.226Z,99.90
2023-04-17T07:01:13.580Z,99.90
2023-04-17T07:03:43.156Z,99.90
2023-04-17T07:06:11.755Z,99.90
2023-04-17T07:08:40.304Z,99.90
2023-04-17T07:11:09.069Z,99.90
2023-04-17T07:13:47.133Z,99.90
2023-04-17T07:16:33.936Z,99.90
2023-04-17T07:19:02.379Z,99.90
2023-04-17T07:21:30.607Z,99.90
2023-04-17T07:23:59.062Z,99.90
2023-04-17T07:26:31.983Z,99.90
2023-04-17T07:29:06.255Z,99.90
2023-04-17T07:31:37.886Z,99.90
2023-04-17T07:34:06.354Z,99.90
2023-04-17T07:36:34.792Z,99.90
2023-04-17T07:39:03.648Z,99.90
2023-04-17T07:41:35.482Z,99.90
2023-04-17T07:44:06.154Z,99.90
2023-04-17T07:46:34.724Z,99.90
2023-04-17T07:49:03.139Z,99.90
2023-04-17T07:51:34.976Z,99.90
2023-04-17T07:54:06.235Z,99.90
2023-04-17T07:56:35.026Z,99.90
2023-04-17T07:59:04.849Z,99.90
2023-04-17T08:01:33.867Z,99.90
2023-04-17T08:04:02.455Z,99.90
2023-04-17T08:06:32.438Z,99.90
2023-04-17T08:09:02.336Z,99.90
2023-04-17T08:11:30.751Z,99.90
2023-04-17T08:13:59.289Z,99.90
2023-04-17T08:16:29.187Z,99.90
2023-04-17T08:18:57.470Z,99.90
2023-04-17T08:21:26.865Z,99.90
2023-04-17T08:23:55.675Z,99.90
2023-04-17T08:26:24.133Z,99.90
2023-04-17T08:28:53.633Z,99.90
2023-04-17T08:31:22.017Z,99.90
2023-04-17T08:33:59.519Z,99.90
2023-04-17T08:36:34.867Z,99.90
2023-04-17T08:39:04.653Z,99.90
2023-04-17T08:41:40.682Z,99.90
2023-04-17T08:44:09.175Z,99.90
2023-04-17T08:46:38.537Z,99.90
2023-04-17T08:49:08.295Z,99.90
2023-04-17T08:51:36.672Z,99.90
2023-04-17T08:54:05.114Z,99.90
2023-04-17T08:56:33.674Z,99.90
2023-04-17T08:59:02.173Z,99.90
2023-04-17T09:01:31.077Z,99.90
2023-04-17T09:03:59.634Z,99.90
2023-04-17T09:06:49.826Z,99.90
2023-04-17T09:09:18.639Z,99.90
2023-04-17T09:11:46.896Z,99.90
2023-04-17T09:14:30.431Z,99.90
2023-04-17T09:16:58.697Z,99.90
2023-04-17T09:19:29.739Z,99.90
2023-04-17T09:22:17.885Z,99.90
2023-04-17T09:24:46.288Z,99.90
2023-04-17T09:27:21.764Z,99.90
2023-04-17T09:30:02.639Z,99.90
2023-04-17T09:32:32.585Z,99.90
2023-04-17T09:35:03.646Z,99.90
2023-04-17T09:37:51.882Z,99.90
2023-04-17T09:40:21.563Z,99.90
2023-04-17T09:43:00.237Z,99.90
2023-04-17T09:45:33.280Z,99.90
2023-04-17T09:48:01.931Z,99.90
2023-04-17T09:50:31.284Z,99.90
2023-04-17T09:53:01.491Z,99.90
2023-04-17T09:55:31.390Z,99.90
2023-04-17T09:58:02.854Z,99.90
2023-04-17T10:00:32.080Z,99.90
2023-04-17T10:03:01.295Z,99.90
2023-04-17T10:05:32.461Z,99.90
2023-04-17T10:08:02.653Z,99.90
2023-04-17T10:10:33.970Z,99.90
2023-04-17T10:13:06.596Z,99.90
2023-04-17T10:15:35.635Z,99.90
2023-04-17T10:18:23.446Z,99.90
2023-04-17T10:20:53.776Z,99.90
2023-04-17T10:23:44.794Z,99.80
2023-04-17T10:26:46.508Z,99.00
2023-04-17T10:29:14.870Z,99.30
2023-04-17T10:32:24.417Z,99.60
2023-04-17T10:34:54.466Z,99.90
2023-04-17T10:37:53.800Z,99.90
2023-04-17T10:40:25.057Z,99.90
2023-04-17T10:43:04.575Z,99.90
2023-04-17T10:45:57.214Z,99.90
2023-04-17T10:48:31.125Z,99.90
2023-04-17T10:51:10.695Z,99.70
2023-04-17T10:53:51.978Z,99.40
2023-04-17T10:56:27.126Z,98.70
2023-04-17T10:58:59.672Z,99.10
2023-04-17T11:01:31.034Z,99.30
2023-04-17T11:04:00.944Z,98.50
2023-04-17T11:06:31.374Z,97.70
2023-04-17T11:09:00.514Z,98.20
2023-04-17T11:11:43.590Z,98.00
2023-04-17T11:14:15.175Z,97.40
2023-04-17T11:16:45.242Z,97.50
2023-04-17T11:19:18.195Z,96.90
2023-04-17T11:21:46.858Z,96.90
2023-04-17T11:24:15.736Z,96.60
2023-04-17T11:26:46.290Z,97.00
2023-04-17T11:29:18.581Z,97.20
2023-04-17T11:31:47.877Z,97.20
2023-04-17T11:34:17.068Z,97.10
2023-04-17T11:36:50.511Z,97.40
2023-04-17T11:39:19.200Z,98.00
2023-04-17T11:41:49.610Z,97.90
2023-04-17T11:44:20.334Z,97.90
2023-04-17T11:46:51.289Z,97.90
2023-04-17T11:49:26.602Z,98.00
2023-04-17T11:51:55.180Z,96.20
2023-04-17T11:54:37.905Z,95.10
2023-04-17T11:57:12.803Z,95.60
2023-04-17T11:59:42.894Z,95.40
2023-04-17T12:02:11.428Z,96.00
2023-04-17T12:04:40.861Z,96.60
2023-04-17T12:07:23.929Z,97.10
2023-04-17T12:09:57.731Z,97.70
2023-04-17T12:12:27.657Z,98.30
2023-04-17T12:14:56.158Z,98.00
2023-04-17T12:17:24.621Z,98.60
2023-04-17T12:19:52.980Z,99.00
2023-04-17T12:22:21.284Z,98.80
2023-04-17T12:24:49.626Z,98.70
2023-04-17T12:27:39.296Z,98.80
2023-04-17T12:30:08.792Z,99.20
2023-04-17T12:32:38.208Z,99.30
2023-04-17T12:35:11.128Z,99.40
2023-04-17T12:38:05.127Z,99.20
2023-04-17T12:40:33.516Z,98.90
2023-04-17T12:43:04.407Z,98.80
2023-04-17T12:45:37.282Z,99.20
2023-04-17T12:48:06.374Z,99.60
2023-04-17T12:50:40.565Z,99.90
2023-04-17T12:53:09.017Z,99.90
2023-04-17T12:55:39.147Z,99.90
2023-04-17T12:58:12.815Z,99.90
2023-04-17T13:00:44.037Z,99.90
2023-04-17T13:03:16.075Z,99.90
2023-04-17T13:05:45.316Z,99.90
2023-04-17T13:08:15.241Z,99.90
2023-04-17T13:10:43.688Z,99.90
2023-04-17T13:13:13.769Z,98.80
2023-04-17T13:15:42.755Z,98.50
2023-04-17T13:18:11.545Z,98.90
2023-04-17T13:20:44.131Z,98.70
2023-04-17T13:23:15.100Z,98.00
2023-04-17T13:25:46.070Z,97.90
2023-04-17T13:28:15.870Z,97.80
2023-04-17T13:30:44.876Z,98.00
2023-04-17T13:33:13.203Z,97.90
2023-04-17T13:35:42.287Z,97.70
2023-04-17T13:38:10.773Z,97.30
2023-04-17T13:40:39.123Z,97.60
2023-04-17T13:43:07.498Z,97.60
2023-04-17T13:45:37.232Z,98.30
2023-04-17T13:48:05.734Z,97.70
2023-04-17T13:50:34.083Z,97.80
2023-04-17T13:53:02.503Z,98.00
2023-04-17T13:55:30.964Z,98.00
2023-04-17T13:57:59.538Z,98.10
2023-04-17T14:00:27.965Z,97.50
2023-04-17T14:02:57.859Z,97.30
2023-04-17T14:05:26.370Z,97.50
2023-04-17T14:07:54.773Z,97.80
2023-04-17T14:10:23.220Z,97.30
2023-04-17T14:12:51.503Z,97.30
2023-04-17T14:15:20.122Z,97.20
2023-04-17T14:17:50.916Z,97.10
2023-04-17T14:20:22.059Z,96.90
2023-04-17T14:22:51.050Z,96.90
2023-04-17T14:25:19.444Z,96.50
2023-04-17T14:27:47.711Z,96.60
2023-04-17T14:30:16.592Z,96.10
2023-04-17T14:32:45.038Z,96.30
2023-04-17T14:35:16.570Z,95.10
2023-04-17T14:37:46.373Z,95.40
2023-04-17T14:40:15.248Z,95.60
2023-04-17T14:42:53.465Z,95.70
2023-04-17T14:45:23.278Z,95.70
2023-04-17T14:47:51.691Z,95.10
2023-04-17T14:50:23.751Z,95.80
2023-04-17T14:52:55.755Z,94.90
2023-04-17T14:55:24.510Z,95.30
2023-04-17T14:57:53.743Z,95.50
2023-04-17T15:00:25.349Z,95.50
2023-04-17T15:02:53.857Z,95.60
2023-04-17T15:05:22.781Z,95.90
2023-04-17T15:07:51.542Z,96.30
2023-04-17T15:10:21.428Z,96.30
2023-04-17T15:12:49.692Z,96.90
2023-04-17T15:15:18.016Z,96.80
2023-04-17T15:17:46.637Z,96.80
2023-04-17T15:20:15.040Z,96.90
2023-04-17T15:22:44.031Z,97.00
2023-04-17T15:25:12.372Z,97.90
2023-04-17T15:27:42.168Z,97.40
2023-04-17T15:30:11.547Z,97.30
2023-04-17T15:32:39.926Z,97.40
2023-04-17T15:35:08.879Z,97.70
2023-04-17T15:37:38.902Z,97.90
2023-04-17T15:40:13.222Z,97.70
2023-04-17T15:42:43.197Z,98.40
2023-04-17T15:45:12.213Z,97.90
2023-04-17T15:47:40.782Z,98.30
2023-04-17T15:50:10.460Z,98.00
2023-04-17T15:52:38.884Z,97.50
2023-04-17T15:55:08.107Z,97.70
2023-04-17T15:57:36.618Z,97.60
2023-04-17T16:00:07.459Z,97.80
2023-04-17T16:02:38.873Z,97.80
2023-04-17T16:05:08.241Z,98.10
2023-04-17T16:07:36.553Z,98.30
2023-04-17T16:10:05.237Z,98.10
2023-04-17T16:12:33.955Z,98.40
2023-04-17T16:15:04.142Z,98.40
2023-04-17T16:17:34.036Z,98.40
2023-04-17T16:20:03.728Z,98.20
2023-04-17T16:22:32.194Z,98.40
2023-04-17T16:25:01.818Z,98.50
2023-04-17T16:27:31.145Z,98.60
2023-04-17T16:29:59.677Z,98.60
2023-04-17T16:32:28.952Z,98.90
2023-04-17T16:34:58.713Z,99.00
2023-04-17T16:37:27.725Z,98.80
2023-04-17T16:40:04.652Z,98.50
2023-04-17T16:42:34.523Z,99.00
2023-04-17T16:45:04.720Z,99.10
2023-04-17T16:47:33.485Z,98.90
2023-04-17T16:50:08.005Z,98.80
2023-04-17T16:52:37.696Z,98.70
2023-04-17T16:55:09.967Z,98.60
2023-04-17T16:57:40.708Z,98.80
2023-04-17T17:00:14.674Z,98.80
2023-04-17T17:02:43.192Z,98.90
2023-04-17T17:05:16.172Z,99.10
2023-04-17T17:07:47.408Z,99.40
2023-04-17T17:10:15.958Z,99.30
2023-04-17T17:12:44.388Z,99.20
2023-04-17T17:15:13.056Z,99.10
2023-04-17T17:17:41.615Z,99.40
2023-04-17T17:20:12.587Z,99.40
2023-04-17T17:22:41.010Z,99.90
2023-04-17T17:25:10.212Z,99.80
2023-04-17T17:27:38.637Z,99.60
2023-04-17T17:30:08.333Z,99.90
2023-04-17T17:32:36.753Z,99.90
2023-04-17T17:35:05.382Z,99.90
2023-04-17T17:37:35.136Z,99.90
2023-04-17T17:40:04.448Z,99.90
2023-04-17T17:42:33.214Z,99.90
2023-04-17T17:45:01.552Z,99.90
2023-04-17T17:47:30.114Z,99.90
2023-04-17T17:50:26.538Z,99.90
2023-04-17T17:52:59.038Z,99.90
2023-04-17T17:55:27.612Z,99.90
2023-04-17T17:57:56.056Z,99.90
2023-04-17T18:00:24.483Z,99.90
2023-04-17T18:02:54.010Z,99.90
2023-04-17T18:05:22.503Z,99.90
2023-04-17T18:07:50.931Z,99.90
2023-04-17T18:10:20.768Z,99.90
2023-04-17T18:12:51.954Z,99.90
2023-04-17T18:15:20.423Z,99.90
2023-04-17T18:17:48.934Z,99.90
2023-04-17T18:20:17.441Z,99.90
2023-04-17T18:22:45.827Z,99.90
2023-04-17T18:25:14.281Z,99.90
2023-04-17T18:27:45.189Z,99.90
2023-04-17T18:30:14.838Z,99.90
2023-04-17T18:32:43.312Z,99.90
2023-04-17T18:35:11.766Z,99.90
2023-04-17T18:38:08.086Z,99.90
2023-04-17T18:40:36.624Z,99.90
2023-04-17T18:43:07.923Z,99.90
2023-04-17T18:45:36.268Z,99.90
2023-04-17T18:48:04.805Z,99.90
2023-04-17T18:50:33.350Z,99.90
2023-04-17T18:53:01.779Z,99.90
2023-04-17T18:55:30.444Z,99.90
2023-04-17T18:58:01.392Z,99.90
2023-04-17T19:00:36.521Z,99.90
2023-04-17T19:03:05.426Z,99.90
2023-04-17T19:05:33.861Z,99.90
2023-04-17T19:08:02.195Z,99.90
2023-04-17T19:10:31.114Z,99.90
2023-04-17T19:12:59.455Z,99.90
2023-04-17T19:15:30.448Z,99.90
2023-04-17T19:18:00.250Z,99.90
2023-04-17T19:20:30.523Z,99.90
2023-04-17T19:23:01.055Z,99.90
2023-04-17T19:25:29.460Z,99.90
2023-04-17T19:27:59.064Z,99.90
2023-04-17T19:30:27.673Z,99.90
2023-04-17T19:33:00.427Z,99.90
2023-04-17T19:35:32.761Z,99.90
2023-04-17T19:38:40.214Z,99.90
2023-04-17T19:45:08.936Z,99.90
2023-04-17T19:47:54.032Z,99.90
2023-04-17T19:50:53.217Z,99.90
2023-04-17T19:53:25.827Z,99.90
2023-04-17T19:55:55.162Z,99.90
2023-04-17T19:58:25.885Z,99.90
2023-04-17T20:00:54.227Z,99.90
2023-04-17T20:03:22.838Z,99.90
2023-04-17T20:05:52.724Z,99.90
2023-04-17T20:08:21.382Z,99.90
2023-04-17T20:10:50.031Z,99.90
2023-04-17T20:13:18.412Z,99.90
2023-04-17T20:15:46.828Z,99.90
2023-04-17T20:18:15.102Z,99.90
2023-04-17T20:20:43.397Z,99.90
2023-04-17T20:23:13.141Z,99.90
2023-04-17T20:25:43.750Z,99.90
2023-04-17T20:28:12.137Z,99.90
2023-04-17T20:30:41.646Z,99.90
2023-04-17T20:33:11.556Z,99.90
2023-04-17T20:35:40.038Z,99.90
2023-04-17T20:38:12.943Z,99.90
2023-04-17T20:40:43.270Z,99.90
2023-04-17T20:43:13.114Z,99.90
2023-04-17T20:45:41.553Z,99.90
2023-04-17T20:48:11.937Z,99.90
2023-04-17T20:50:49.199Z,99.90
2023-04-17T20:53:25.105Z,99.90
2023-04-17T20:55:57.881Z,99.90
2023-04-17T20:58:29.460Z,99.90
2023-04-17T21:01:01.891Z,99.90
2023-04-17T21:03:40.338Z,99.90
2023-04-17T21:06:10.734Z,99.90
2023-04-17T21:08:40.705Z,99.90
2023-04-17T21:11:09.543Z,99.90
2023-04-17T21:13:40.673Z,99.90
2023-04-17T21:16:14.774Z,99.90
2023-04-17T21:18:45.217Z,99.90
2023-04-17T21:21:16.556Z,99.90
2023-04-17T21:23:47.925Z,99.90
2023-04-17T21:26:17.772Z,99.90
2023-04-17T21:28:46.157Z,99.90
2023-04-17T21:31:17.439Z,99.90
2023-04-17T21:33:49.543Z,99.90
2023-04-17T21:36:19.572Z,99.90
2023-04-17T21:38:49.323Z,99.90
2023-04-17T21:41:17.582Z,99.90
2023-04-17T21:43:48.209Z,99.90
2023-04-17T21:46:16.623Z,99.90
2023-04-17T21:48:47.986Z,99.90
2023-04-17T21:51:19.132Z,99.90
2023-04-17T21:53:51.185Z,99.90
2023-04-17T21:56:24.006Z,99.90
2023-04-17T21:58:52.451Z,99.90
2023-04-17T22:01:20.798Z,99.90
2023-04-17T22:03:49.096Z,99.90
2023-04-17T22:06:19.988Z,99.90
2023-04-17T22:08:54.734Z,99.90
2023-04-17T22:11:23.094Z,99.90
2023-04-17T22:13:51.416Z,99.90
2023-04-17T22:16:19.689Z,99.90
2023-04-17T22:18:47.959Z,99.90
2023-04-17T22:21:16.236Z,99.90
2023-04-17T22:23:44.569Z,99.90
2023-04-17T22:26:14.424Z,99.90
2023-04-17T22:28:42.747Z,99.90
2023-04-17T22:31:11.355Z,99.90
2023-04-17T22:33:39.714Z,99.90
2023-04-17T22:36:08.120Z,99.90
2023-04-17T22:38:36.601Z,99.90
2023-04-17T22:41:05.274Z,99.90
2023-04-17T22:43:34.949Z,99.90
2023-04-17T22:46:03.297Z,99.90
2023-04-17T22:48:32.833Z,99.90
2023-04-17T22:51:01.132Z,99.90
2023-04-17T22:53:29.666Z,99.90
2023-04-17T22:56:02.102Z,99.90
2023-04-17T22:58:32.815Z,99.90
2023-04-17T23:01:02.862Z,99.90
2023-04-17T23:03:31.394Z,99.90
2023-04-17T23:05:59.751Z,99.90
2023-04-17T23:08:30.576Z,99.90
2023-04-17T23:11:00.172Z,99.90
2023-04-17T23:13:29.110Z,99.90
2023-04-17T23:15:59.652Z,99.90
2023-04-17T23:18:29.669Z,99.90
2023-04-17T23:20:58.074Z,99.90
2023-04-17T23:23:26.607Z,99.90
2023-04-17T23:25:55.328Z,99.90
2023-04-17T23:28:30.613Z,99.90
2023-04-17T23:30:59.587Z,99.90
2023-04-17T23:33:40.151Z,99.90
2023-04-17T23:36:09.148Z,99.90
2023-04-17T23:38:37.796Z,99.90
2023-04-17T23:41:06.597Z,99.90
2023-04-17T23:43:35.018Z,99.90
2023-04-17T23:46:03.385Z,99.90
2023-04-17T23:48:33.194Z,99.90
2023-04-17T23:51:01.539Z,99.90
2023-04-17T23:53:29.842Z,99.90
2023-04-17T23:55:58.133Z,99.90
2023-04-17T23:58:26.369Z,99.90
